Time;durP1;ratioP1;P1;durP2;ratioP2;P2;SDS_P1;SDS_P2;PMS_P1;PMS_P2;Temp;Humidity;BMP_temperature;BMP_pressure;BME280_temperature;BME280_humidity;BME280_pressure;Samples;Min_cycle;Max_cycle;Signal;HPM_P1;HPM_P2
2021/04/24 00:00:08;;;;;;;7.53;3.75;;;;;;;;;;5073069;28;20291;-71
2021/04/24 00:02:37;;;;;;;3.53;3.22;;;;;;;;;;5072790;28;20286;-71
2021/04/24 00:05:05;;;;;;;5.82;3.55;;;;;;;;;;5072720;28;20230;-71
2021/04/24 00:07:32;;;;;;;10.38;4.32;;;;;;;;;;5072949;28;20282;-71
2021/04/24 00:09:58;;;;;;;8.65;3.35;;;;;;;;;;5073473;28;20226;-71
2021/04/24 00:12:25;;;;;;;6.70;4.15;;;;;;;;;;5073359;28;20194;-71
2021/04/24 00:14:52;;;;;;;5.55;3.92;;;;;;;;;;5076935;28;20202;-71
2021/04/24 00:17:18;;;;;;;5.63;3.50;;;;;;;;;;5077082;28;20202;-71
2021/04/24 00:19:46;;;;;;;10.85;3.88;;;;;;;;;;5076679;28;20194;-71
2021/04/24 00:22:13;;;;;;;4.75;3.80;;;;;;;;;;5076810;28;20201;-70
2021/04/24 00:24:39;;;;;;;6.15;4.20;;;;;;;;;;5077462;28;20217;-71
2021/04/24 00:27:06;;;;;;;9.88;4.13;;;;;;;;;;5076661;28;20226;-71
2021/04/24 00:29:34;;;;;;;7.22;4.03;;;;;;;;;;5076876;28;20198;-71
2021/04/24 00:32:01;;;;;;;8.60;4.72;;;;;;;;;;5076635;28;20202;-71
2021/04/24 00:34:28;;;;;;;8.63;4.47;;;;;;;;;;5076878;28;20208;-71
2021/04/24 00:36:55;;;;;;;4.90;3.70;;;;;;;;;;5076204;28;20712;-71
2021/04/24 00:39:22;;;;;;;6.22;4.13;;;;;;;;;;5076173;28;20204;-71
2021/04/24 00:41:49;;;;;;;5.07;3.80;;;;;;;;;;5076351;28;20194;-71
2021/04/24 00:44:15;;;;;;;7.03;5.03;;;;;;;;;;5076334;28;20191;-70
2021/04/24 00:46:42;;;;;;;14.40;4.80;;;;;;;;;;5076945;28;20664;-71
2021/04/24 00:49:10;;;;;;;9.68;5.18;;;;;;;;;;5075866;28;20329;-70
2021/04/24 00:51:36;;;;;;;8.10;4.40;;;;;;;;;;5076256;28;20201;-71
2021/04/24 00:54:05;;;;;;;9.85;4.43;;;;;;;;;;5076222;28;20279;-70
2021/04/24 00:56:32;;;;;;;9.82;5.63;;;;;;;;;;5075814;28;20202;-71
2021/04/24 00:58:59;;;;;;;5.95;4.10;;;;;;;;;;5075783;28;20240;-71
2021/04/24 01:01:26;;;;;;;9.98;5.22;;;;;;;;;;5076055;28;20316;-71
2021/04/24 01:03:53;;;;;;;11.23;4.57;;;;;;;;;;5076368;28;20199;-71
2021/04/24 01:06:20;;;;;;;8.57;4.35;;;;;;;;;;5075977;28;20222;-71
2021/04/24 01:08:46;;;;;;;7.60;5.18;;;;;;;;;;5076343;28;20240;-71
2021/04/24 01:11:14;;;;;;;9.23;5.85;;;;;;;;;;5075868;28;20218;-71
2021/04/24 01:13:41;;;;;;;8.02;4.28;;;;;;;;;;5076255;28;20206;-71
2021/04/24 01:16:08;;;;;;;8.00;5.40;;;;;;;;;;5075878;28;20209;-71
2021/04/24 01:18:34;;;;;;;9.15;5.50;;;;;;;;;;5076032;28;20652;-70
2021/04/24 01:21:04;;;;;;;7.80;4.90;;;;;;;;;;5076390;28;20198;-71
2021/04/24 01:23:31;;;;;;;9.88;5.15;;;;;;;;;;5076356;28;20233;-71
2021/04/24 01:26:00;;;;;;;7.95;5.30;;;;;;;;;;5074928;28;20218;-70
2021/04/24 01:28:26;;;;;;;11.60;4.75;;;;;;;;;;5075997;28;20289;-70
2021/04/24 01:30:53;;;;;;;9.27;5.75;;;;;;;;;;5075920;28;20191;-70
2021/04/24 01:33:20;;;;;;;11.25;5.80;;;;;;;;;;5075935;28;20198;-70
2021/04/24 01:35:47;;;;;;;5.45;4.85;;;;;;;;;;5075905;28;20310;-70
2021/04/24 01:38:13;;;;;;;9.00;5.30;;;;;;;;;;5075562;28;20240;-70
2021/04/24 01:40:41;;;;;;;6.47;5.10;;;;;;;;;;5075638;28;20233;-70
2021/04/24 01:43:08;;;;;;;7.63;4.55;;;;;;;;;;5076136;28;20281;-70
2021/04/24 01:45:35;;;;;;;9.15;5.38;;;;;;;;;;5075940;28;20218;-70
2021/04/24 01:48:02;;;;;;;8.95;5.43;;;;;;;;;;5076670;28;20289;-70
2021/04/24 01:50:29;;;;;;;8.45;5.47;;;;;;;;;;5078234;28;20699;-71
2021/04/24 01:52:57;;;;;;;9.52;5.07;;;;;;;;;;5077718;28;20276;-70
2021/04/24 01:55:25;;;;;;;8.25;5.85;;;;;;;;;;5075953;28;20710;-72
2021/04/24 01:57:53;;;;;;;10.90;5.82;;;;;;;;;;5075585;28;20194;-72
2021/04/24 02:00:23;;;;;;;11.23;5.50;;;;;;;;;;5075352;28;20205;-72
2021/04/24 02:02:50;;;;;;;7.20;4.70;;;;;;;;;;5076134;28;20216;-72
2021/04/24 02:05:17;;;;;;;9.73;6.38;;;;;;;;;;5074978;28;20293;-72
2021/04/24 02:07:53;;;;;;;9.93;6.10;;;;;;;;;;5075399;28;20195;-72
2021/04/24 02:10:19;;;;;;;8.40;5.63;;;;;;;;;;5075254;28;20185;-72
2021/04/24 02:12:46;;;;;;;9.43;5.22;;;;;;;;;;5075244;28;20200;-71
2021/04/24 02:15:14;;;;;;;11.38;5.88;;;;;;;;;;5075544;28;20289;-71
2021/04/24 02:17:41;;;;;;;8.88;5.32;;;;;;;;;;5074686;28;20194;-71
2021/04/24 02:20:08;;;;;;;12.20;6.15;;;;;;;;;;5075555;28;20316;-72
2021/04/24 02:22:35;;;;;;;9.10;6.38;;;;;;;;;;5074985;28;20533;-72
2021/04/24 02:25:03;;;;;;;10.07;5.45;;;;;;;;;;5075078;28;20189;-71
2021/04/24 02:27:31;;;;;;;7.38;5.57;;;;;;;;;;5074464;28;20699;-72
2021/04/24 02:29:57;;;;;;;10.10;6.10;;;;;;;;;;5074815;28;20537;-72
2021/04/24 02:32:26;;;;;;;11.75;5.55;;;;;;;;;;5074774;28;20200;-71
2021/04/24 02:34:53;;;;;;;7.22;5.18;;;;;;;;;;5074369;28;20198;-71
2021/04/24 02:37:20;;;;;;;11.57;5.13;;;;;;;;;;5073606;28;20304;-71
2021/04/24 02:39:48;;;;;;;11.18;5.35;;;;;;;;;;5075407;28;20633;-73
2021/04/24 02:42:16;;;;;;;10.63;5.95;;;;;;;;;;5074849;28;20191;-71
2021/04/24 02:44:42;;;;;;;16.13;5.53;;;;;;;;;;5074865;28;20195;-71
2021/04/24 02:47:09;;;;;;;8.38;5.70;;;;;;;;;;5074022;28;20687;-71
2021/04/24 02:49:37;;;;;;;9.57;5.55;;;;;;;;;;5074698;28;20612;-71
2021/04/24 02:52:05;;;;;;;9.75;5.70;;;;;;;;;;5075001;28;20660;-72
2021/04/24 02:54:32;;;;;;;13.18;7.13;;;;;;;;;;5074923;28;20191;-72
2021/04/24 02:56:58;;;;;;;12.48;5.85;;;;;;;;;;5074305;28;20558;-72
2021/04/24 02:59:25;;;;;;;9.10;4.95;;;;;;;;;;5074496;28;20204;-72
2021/04/24 03:01:52;;;;;;;12.57;5.80;;;;;;;;;;5074308;28;20281;-70
2021/04/24 03:04:19;;;;;;;9.27;5.30;;;;;;;;;;5074140;28;20280;-70
2021/04/24 03:06:47;;;;;;;7.00;5.38;;;;;;;;;;5073970;28;20305;-70
2021/04/24 03:09:13;;;;;;;9.93;5.85;;;;;;;;;;5073753;28;20290;-70
2021/04/24 03:11:41;;;;;;;11.77;6.13;;;;;;;;;;5073801;28;20197;-71
2021/04/24 03:14:08;;;;;;;12.77;6.38;;;;;;;;;;5074086;28;20239;-71
2021/04/24 03:16:35;;;;;;;7.57;6.57;;;;;;;;;;5074141;28;20665;-71
2021/04/24 03:19:03;;;;;;;12.55;5.97;;;;;;;;;;5073905;28;20594;-70
2021/04/24 03:21:30;;;;;;;7.47;5.40;;;;;;;;;;5073549;28;20190;-69
2021/04/24 03:23:57;;;;;;;8.50;6.28;;;;;;;;;;5074385;28;20285;-70
2021/04/24 03:26:24;;;;;;;11.63;5.60;;;;;;;;;;5074255;28;20254;-70
2021/04/24 03:28:51;;;;;;;11.00;6.90;;;;;;;;;;5074050;28;20198;-70
2021/04/24 03:31:18;;;;;;;8.90;6.13;;;;;;;;;;5073761;28;20207;-70
2021/04/24 03:33:45;;;;;;;15.18;6.82;;;;;;;;;;5073476;28;20189;-70
2021/04/24 03:36:12;;;;;;;12.20;6.50;;;;;;;;;;5073719;28;20204;-70
2021/04/24 03:38:39;;;;;;;14.45;6.80;;;;;;;;;;5073638;28;20201;-70
2021/04/24 03:41:08;;;;;;;12.43;6.95;;;;;;;;;;5073613;28;20197;-70
2021/04/24 03:43:35;;;;;;;9.60;6.03;;;;;;;;;;5073278;28;20224;-70
2021/04/24 03:46:01;;;;;;;7.82;5.80;;;;;;;;;;5073215;28;20218;-70
2021/04/24 03:48:28;;;;;;;12.10;6.15;;;;;;;;;;5073084;28;20203;-69
2021/04/24 03:50:55;;;;;;;10.25;5.80;;;;;;;;;;5073250;28;20198;-69
2021/04/24 03:53:22;;;;;;;8.50;5.45;;;;;;;;;;5073707;28;20200;-70
2021/04/24 03:55:48;;;;;;;9.98;6.72;;;;;;;;;;5073349;28;20288;-70
2021/04/24 03:58:16;;;;;;;12.43;7.10;;;;;;;;;;5073392;28;20707;-70
2021/04/24 04:00:43;;;;;;;32.63;7.60;;;;;;;;;;5073820;28;20195;-70
2021/04/24 04:03:10;;;;;;;11.27;6.50;;;;;;;;;;5073690;28;20575;-71
2021/04/24 04:05:38;;;;;;;16.38;7.00;;;;;;;;;;5073342;28;20201;-70
2021/04/24 04:08:05;;;;;;;7.25;5.95;;;;;;;;;;5073542;28;20282;-70
2021/04/24 04:10:32;;;;;;;12.48;6.32;;;;;;;;;;5073084;28;20195;-70
2021/04/24 04:12:59;;;;;;;9.35;6.40;;;;;;;;;;5073556;28;20340;-70
2021/04/24 04:15:27;;;;;;;14.07;7.13;;;;;;;;;;5073013;28;20194;-70
2021/04/24 04:17:56;;;;;;;11.90;6.88;;;;;;;;;;5073453;28;20202;-71
2021/04/24 04:20:23;;;;;;;13.75;7.15;;;;;;;;;;5073257;28;20194;-70
2021/04/24 04:22:50;;;;;;;14.48;8.48;;;;;;;;;;5073397;28;20194;-71
2021/04/24 04:25:16;;;;;;;13.00;6.88;;;;;;;;;;5073230;28;20624;-70
2021/04/24 04:27:43;;;;;;;14.55;7.22;;;;;;;;;;5073155;28;20690;-70
2021/04/24 04:30:11;;;;;;;14.95;8.20;;;;;;;;;;5073153;28;20232;-69
2021/04/24 04:32:39;;;;;;;15.95;9.10;;;;;;;;;;5055629;28;20544;-70
2021/04/24 04:35:06;;;;;;;12.60;7.20;;;;;;;;;;5071951;28;20190;-70
2021/04/24 04:37:33;;;;;;;14.75;8.52;;;;;;;;;;5072597;28;20281;-70
2021/04/24 04:40:00;;;;;;;19.77;7.50;;;;;;;;;;5072497;28;20694;-70
2021/04/24 04:42:26;;;;;;;15.70;7.30;;;;;;;;;;5073424;28;20195;-70
2021/04/24 04:44:53;;;;;;;14.80;8.18;;;;;;;;;;5072792;28;20201;-72
2021/04/24 04:47:20;;;;;;;11.23;7.40;;;;;;;;;;5072959;28;20305;-71
2021/04/24 04:49:48;;;;;;;14.52;7.38;;;;;;;;;;5072987;28;20271;-70
2021/04/24 04:52:14;;;;;;;19.23;10.45;;;;;;;;;;5073023;28;20621;-71
2021/04/24 04:54:41;;;;;;;15.90;8.27;;;;;;;;;;5072648;28;20192;-70
2021/04/24 04:57:08;;;;;;;18.48;9.52;;;;;;;;;;5072880;28;20203;-69
2021/04/24 04:59:35;;;;;;;16.02;8.95;;;;;;;;;;5072960;28;20666;-71
2021/04/24 05:02:02;;;;;;;14.25;9.10;;;;;;;;;;5060672;28;20287;-70
2021/04/24 05:04:28;;;;;;;16.20;9.82;;;;;;;;;;5055705;28;20237;-71
2021/04/24 05:06:56;;;;;;;17.10;8.25;;;;;;;;;;5056347;28;20309;-70
2021/04/24 05:09:23;;;;;;;18.35;8.43;;;;;;;;;;5056563;28;20234;-71
2021/04/24 05:11:50;;;;;;;17.85;8.48;;;;;;;;;;5055805;28;20199;-70
2021/04/24 05:14:16;;;;;;;13.10;8.75;;;;;;;;;;5056575;28;20215;-71
2021/04/24 05:16:43;;;;;;;19.48;9.02;;;;;;;;;;5056187;28;20202;-72
2021/04/24 05:19:10;;;;;;;14.02;8.95;;;;;;;;;;5056157;28;20191;-72
2021/04/24 05:21:37;;;;;;;14.25;9.93;;;;;;;;;;5055645;28;20199;-70
2021/04/24 05:24:05;;;;;;;13.60;8.82;;;;;;;;;;5055887;28;20207;-70
2021/04/24 05:26:31;;;;;;;21.35;10.32;;;;;;;;;;5055683;28;20697;-70
2021/04/24 05:28:58;;;;;;;13.88;8.77;;;;;;;;;;5056066;28;20199;-70
2021/04/24 05:31:25;;;;;;;14.05;8.82;;;;;;;;;;5055402;28;20202;-71
2021/04/24 05:33:52;;;;;;;15.88;8.65;;;;;;;;;;5056385;28;20195;-70
2021/04/24 05:36:19;;;;;;;24.60;9.18;;;;;;;;;;5055794;28;20561;-71
2021/04/24 05:38:46;;;;;;;14.50;8.80;;;;;;;;;;5055806;28;20598;-70
2021/04/24 05:41:17;;;;;;;14.80;8.45;;;;;;;;;;5055992;28;20227;-70
2021/04/24 05:43:43;;;;;;;13.43;8.20;;;;;;;;;;5055761;28;20180;-70
2021/04/24 05:46:10;;;;;;;14.27;7.90;;;;;;;;;;5056032;28;20218;-70
2021/04/24 05:48:37;;;;;;;22.40;8.82;;;;;;;;;;5055481;28;20310;-72
2021/04/24 05:51:04;;;;;;;19.83;8.50;;;;;;;;;;5055324;28;20275;-70
2021/04/24 05:53:30;;;;;;;14.70;8.40;;;;;;;;;;5055770;28;20657;-70
2021/04/24 05:55:57;;;;;;;17.05;8.07;;;;;;;;;;5055172;28;20201;-71
2021/04/24 05:58:25;;;;;;;25.05;10.15;;;;;;;;;;5055426;28;20195;-71
2021/04/24 06:00:51;;;;;;;19.55;8.90;;;;;;;;;;5054924;28;20228;-71
2021/04/24 06:03:18;;;;;;;16.67;8.52;;;;;;;;;;5055143;28;20259;-71
2021/04/24 06:05:45;;;;;;;17.63;8.95;;;;;;;;;;5055051;28;20290;-71
2021/04/24 06:08:11;;;;;;;15.95;8.93;;;;;;;;;;5055707;28;20273;-71
2021/04/24 06:10:39;;;;;;;12.55;7.85;;;;;;;;;;5055211;28;20195;-71
2021/04/24 06:13:05;;;;;;;15.77;8.80;;;;;;;;;;5055628;28;20207;-71
2021/04/24 06:15:33;;;;;;;23.10;8.65;;;;;;;;;;5055224;28;20201;-71
2021/04/24 06:18:00;;;;;;;18.10;8.50;;;;;;;;;;5054941;28;20294;-71
2021/04/24 06:20:27;;;;;;;16.98;8.77;;;;;;;;;;5054550;28;20198;-70
2021/04/24 06:22:53;;;;;;;17.80;7.95;;;;;;;;;;5054923;28;20224;-70
2021/04/24 06:25:20;;;;;;;16.23;8.48;;;;;;;;;;5054650;28;20195;-71
2021/04/24 06:27:47;;;;;;;14.35;8.60;;;;;;;;;;5054791;28;20231;-73
2021/04/24 06:30:15;;;;;;;12.20;6.95;;;;;;;;;;5054349;28;20191;-70
2021/04/24 06:32:43;;;;;;;14.00;7.95;;;;;;;;;;5054724;28;20226;-71
2021/04/24 06:35:10;;;;;;;14.18;7.50;;;;;;;;;;5054519;28;20744;-70
2021/04/24 06:37:37;;;;;;;13.57;7.57;;;;;;;;;;5055226;28;20306;-70
2021/04/24 06:40:04;;;;;;;12.10;7.80;;;;;;;;;;5054416;28;20191;-71
2021/04/24 06:42:31;;;;;;;14.07;8.13;;;;;;;;;;5054669;28;20653;-70
2021/04/24 06:44:58;;;;;;;8.95;6.70;;;;;;;;;;5054299;28;20736;-71
2021/04/24 06:47:25;;;;;;;14.68;8.40;;;;;;;;;;5055459;28;20282;-70
2021/04/24 06:49:52;;;;;;;9.55;6.45;;;;;;;;;;5055075;28;20227;-71
2021/04/24 06:52:19;;;;;;;14.88;8.25;;;;;;;;;;5057142;28;20238;-71
2021/04/24 06:54:46;;;;;;;13.23;7.28;;;;;;;;;;5057633;28;20191;-70
2021/04/24 06:57:13;;;;;;;11.27;6.57;;;;;;;;;;5055535;28;20303;-70
2021/04/24 06:59:40;;;;;;;13.25;7.70;;;;;;;;;;5054685;28;20294;-70
2021/04/24 07:02:10;;;;;;;10.57;7.03;;;;;;;;;;5054422;28;20211;-71
2021/04/24 07:04:37;;;;;;;11.38;6.22;;;;;;;;;;5056214;28;20234;-70
2021/04/24 07:07:04;;;;;;;9.40;7.28;;;;;;;;;;5054828;28;20688;-70
2021/04/24 07:09:31;;;;;;;9.80;6.28;;;;;;;;;;5054081;28;20229;-70
2021/04/24 07:11:58;;;;;;;11.25;6.70;;;;;;;;;;5053577;28;20200;-70
2021/04/24 07:14:24;;;;;;;16.48;7.30;;;;;;;;;;5054013;28;20287;-70
2021/04/24 07:16:51;;;;;;;16.35;7.35;;;;;;;;;;5053619;28;20289;-70
2021/04/24 07:19:18;;;;;;;15.77;7.03;;;;;;;;;;5054097;28;20230;-70
2021/04/24 07:21:45;;;;;;;12.48;6.47;;;;;;;;;;5054056;28;20226;-70
2021/04/24 07:24:12;;;;;;;14.43;8.52;;;;;;;;;;5052738;28;20199;-70
2021/04/24 07:26:40;;;;;;;12.55;6.47;;;;;;;;;;5053495;28;20243;-71
2021/04/24 07:29:07;;;;;;;11.23;6.60;;;;;;;;;;5053779;28;20238;-71
2021/04/24 07:31:34;;;;;;;12.65;7.00;;;;;;;;;;5053558;28;20231;-70
2021/04/24 07:34:01;;;;;;;10.38;6.00;;;;;;;;;;5053887;28;20202;-71
2021/04/24 07:36:27;;;;;;;21.05;8.43;;;;;;;;;;5054152;28;20290;-70
2021/04/24 07:38:55;;;;;;;11.90;6.15;;;;;;;;;;5053587;28;20557;-70
2021/04/24 07:41:23;;;;;;;7.45;4.85;;;;;;;;;;5053183;28;20621;-70
2021/04/24 07:43:50;;;;;;;7.90;4.95;;;;;;;;;;5052919;28;20206;-70
2021/04/24 07:46:16;;;;;;;9.98;5.90;;;;;;;;;;5052946;28;20351;-70
2021/04/24 07:48:43;;;;;;;12.85;5.63;;;;;;;;;;5052719;28;20291;-70
2021/04/24 07:51:10;;;;;;;6.78;5.28;;;;;;;;;;5053192;28;20685;-70
2021/04/24 07:53:37;;;;;;;13.77;6.03;;;;;;;;;;5053390;28;20201;-70
2021/04/24 07:56:04;;;;;;;8.93;5.80;;;;;;;;;;5053549;28;20290;-70
2021/04/24 07:58:31;;;;;;;6.80;4.57;;;;;;;;;;5053557;28;20280;-70
2021/04/24 08:00:58;;;;;;;9.43;4.80;;;;;;;;;;5053114;28;20200;-70
2021/04/24 08:03:25;;;;;;;7.95;5.65;;;;;;;;;;5052940;28;20608;-70
2021/04/24 08:05:51;;;;;;;6.97;4.78;;;;;;;;;;5052735;28;20237;-71
2021/04/24 08:08:18;;;;;;;6.47;4.85;;;;;;;;;;5053124;28;20223;-70
2021/04/24 08:10:45;;;;;;;6.18;4.43;;;;;;;;;;5053172;28;20321;-69
2021/04/24 08:13:12;;;;;;;11.68;5.53;;;;;;;;;;5053210;28;20198;-71
2021/04/24 08:15:39;;;;;;;6.20;4.50;;;;;;;;;;5053266;28;20234;-70
2021/04/24 08:18:06;;;;;;;11.35;4.47;;;;;;;;;;5052976;28;20209;-69
2021/04/24 08:20:33;;;;;;;5.65;4.55;;;;;;;;;;5052634;28;20193;-69
2021/04/24 08:23:00;;;;;;;8.57;4.95;;;;;;;;;;5052819;28;20199;-69
2021/04/24 08:25:27;;;;;;;6.18;4.25;;;;;;;;;;5053016;28;20196;-69
2021/04/24 08:27:53;;;;;;;9.43;4.00;;;;;;;;;;5052949;28;20219;-70
2021/04/24 08:30:21;;;;;;;6.03;4.20;;;;;;;;;;5052606;28;20196;-70
2021/04/24 08:32:49;;;;;;;13.18;5.00;;;;;;;;;;5052870;28;20234;-71
2021/04/24 08:35:16;;;;;;;8.48;4.18;;;;;;;;;;5055726;28;20191;-70
2021/04/24 08:37:44;;;;;;;5.70;4.82;;;;;;;;;;5056454;28;20662;-70
2021/04/24 08:40:12;;;;;;;6.25;4.00;;;;;;;;;;5057064;28;20256;-70
2021/04/24 08:42:39;;;;;;;7.07;3.95;;;;;;;;;;5056664;28;20256;-70
2021/04/24 08:45:14;;;;;;;4.82;3.55;;;;;;;;;;5055978;28;20206;-70
2021/04/24 08:47:42;;;;;;;2.85;2.65;;;;;;;;;;5056277;28;20214;-70
2021/04/24 08:50:11;;;;;;;6.20;3.67;;;;;;;;;;5056734;28;20271;-70
2021/04/24 08:52:38;;;;;;;6.07;3.90;;;;;;;;;;5056354;28;20293;-70
2021/04/24 08:55:05;;;;;;;10.35;4.00;;;;;;;;;;5056044;28;20327;-70
2021/04/24 08:57:32;;;;;;;5.43;4.30;;;;;;;;;;5056420;28;20249;-70
2021/04/24 08:59:59;;;;;;;8.70;5.38;;;;;;;;;;5056502;28;20207;-70
2021/04/24 09:02:25;;;;;;;5.90;4.50;;;;;;;;;;5056011;28;20200;-70
2021/04/24 09:04:52;;;;;;;7.70;5.35;;;;;;;;;;5056692;28;20204;-70
2021/04/24 09:07:20;;;;;;;8.05;4.70;;;;;;;;;;5055957;28;20230;-70
2021/04/24 09:09:56;;;;;;;10.18;6.07;;;;;;;;;;5055963;28;20293;-70
2021/04/24 09:12:33;;;;;;;8.38;4.82;;;;;;;;;;5056191;28;20198;-70
2021/04/24 09:15:06;;;;;;;10.10;5.13;;;;;;;;;;5056324;28;20185;-70
2021/04/24 09:17:47;;;;;;;5.75;4.85;;;;;;;;;;5056726;28;20272;-70
2021/04/24 09:20:15;;;;;;;7.70;4.47;;;;;;;;;;5056505;28;20197;-70
2021/04/24 09:22:42;;;;;;;7.80;4.70;;;;;;;;;;5055793;28;20237;-70
2021/04/24 09:25:09;;;;;;;10.07;4.65;;;;;;;;;;5055961;28;20679;-70
2021/04/24 09:27:42;;;;;;;8.55;5.13;;;;;;;;;;5055965;28;20646;-70
2021/04/24 09:30:16;;;;;;;9.43;5.80;;;;;;;;;;5055611;28;20202;-70
2021/04/24 09:32:43;;;;;;;6.72;4.85;;;;;;;;;;5055883;28;20287;-71
2021/04/24 09:35:10;;;;;;;6.35;4.55;;;;;;;;;;5055863;28;20193;-71
2021/04/24 09:37:37;;;;;;;7.22;5.03;;;;;;;;;;5055917;28;20203;-70
2021/04/24 09:40:10;;;;;;;7.78;4.93;;;;;;;;;;5056022;28;20709;-70
2021/04/24 09:42:38;;;;;;;9.15;4.90;;;;;;;;;;5055898;28;20640;-70
2021/04/24 09:45:08;;;;;;;10.50;5.30;;;;;;;;;;5055290;28;20720;-70
2021/04/24 09:47:42;;;;;;;5.03;4.45;;;;;;;;;;5054755;28;20712;-70
2021/04/24 09:50:10;;;;;;;10.18;4.93;;;;;;;;;;5055318;28;20316;-70
2021/04/24 09:52:37;;;;;;;8.85;4.88;;;;;;;;;;5055131;28;20261;-70
2021/04/24 09:55:05;;;;;;;5.68;4.88;;;;;;;;;;5055663;28;20196;-69
2021/04/24 09:57:34;;;;;;;5.70;5.10;;;;;;;;;;5055376;28;20307;-69
2021/04/24 10:00:02;;;;;;;6.95;4.40;;;;;;;;;;5055824;28;20599;-69
2021/04/24 10:02:29;;;;;;;10.32;5.00;;;;;;;;;;5055061;28;20200;-69
2021/04/24 10:05:06;;;;;;;7.82;5.60;;;;;;;;;;5055623;28;20220;-69
2021/04/24 10:07:36;;;;;;;5.57;4.85;;;;;;;;;;5055654;28;20557;-76
2021/04/24 10:10:05;;;;;;;9.32;4.93;;;;;;;;;;5054927;28;20263;-70
2021/04/24 10:12:32;;;;;;;12.52;4.95;;;;;;;;;;5055418;28;20198;-70
2021/04/24 10:14:59;;;;;;;6.15;4.82;;;;;;;;;;5059396;28;20736;-69
2021/04/24 10:17:26;;;;;;;7.93;5.00;;;;;;;;;;5068468;28;20209;-69
2021/04/24 10:19:54;;;;;;;7.35;5.25;;;;;;;;;;5074870;28;20205;-70
2021/04/24 10:22:21;;;;;;;6.50;5.90;;;;;;;;;;5074831;28;20291;-70
2021/04/24 10:24:48;;;;;;;6.35;5.65;;;;;;;;;;5073683;28;20252;-70
2021/04/24 10:27:16;;;;;;;5.28;4.47;;;;;;;;;;5074757;28;20231;-70
2021/04/24 10:29:48;;;;;;;7.47;5.00;;;;;;;;;;5074731;28;20288;-70
2021/04/24 10:32:15;;;;;;;9.25;5.97;;;;;;;;;;5074580;28;20238;-70
2021/04/24 10:34:42;;;;;;;6.78;4.75;;;;;;;;;;5075005;28;20193;-70
2021/04/24 10:37:09;;;;;;;6.68;5.18;;;;;;;;;;5074433;28;20607;-70
2021/04/24 10:39:38;;;;;;;12.05;5.60;;;;;;;;;;5074133;28;20296;-70
2021/04/24 10:42:07;;;;;;;8.93;5.80;;;;;;;;;;5074832;28;20626;-69
2021/04/24 10:44:56;;;;;;;12.32;5.15;;;;;;;;;;5066365;28;20659;-69
2021/04/24 10:47:41;;;;;;;9.93;6.38;;;;;;;;;;5054385;28;20210;-70
2021/04/24 10:50:13;;;;;;;7.23;5.83;;;;;;;;;;5053916;28;20706;-69
2021/04/24 10:52:42;;;;;;;6.15;4.90;;;;;;;;;;5054579;28;20930;-70
2021/04/24 10:55:26;;;;;;;6.67;5.43;;;;;;;;;;5054646;28;20205;-70
2021/04/24 10:57:55;;;;;;;9.37;6.20;;;;;;;;;;5053028;28;20444;-69
2021/04/24 11:00:23;;;;;;;9.02;6.20;;;;;;;;;;5054856;28;20537;-69
2021/04/24 11:02:51;;;;;;;11.57;5.47;;;;;;;;;;5054129;28;20233;-70
2021/04/24 11:05:23;;;;;;;10.95;6.00;;;;;;;;;;5053910;28;20296;-70
2021/04/24 11:07:50;;;;;;;10.68;6.28;;;;;;;;;;5054206;28;20214;-69
2021/04/24 11:10:29;;;;;;;13.05;5.22;;;;;;;;;;5054090;28;20250;-70
2021/04/24 11:13:01;;;;;;;6.78;5.13;;;;;;;;;;5054128;28;20577;-70
2021/04/24 11:15:30;;;;;;;8.73;5.35;;;;;;;;;;5053304;28;20667;-70
2021/04/24 11:17:57;;;;;;;8.00;4.82;;;;;;;;;;5053410;28;20204;-70
2021/04/24 11:20:43;;;;;;;7.47;5.50;;;;;;;;;;5053941;28;20572;-69
2021/04/24 11:23:24;;;;;;;8.85;5.03;;;;;;;;;;5053952;28;20205;-70
2021/04/24 11:25:52;;;;;;;5.50;4.60;;;;;;;;;;5053762;28;20306;-70
2021/04/24 11:28:20;;;;;;;8.03;5.77;;;;;;;;;;5053625;28;20568;-70
2021/04/24 11:30:52;;;;;;;8.77;5.37;;;;;;;;;;5054095;28;20542;-71
2021/04/24 11:33:32;;;;;;;7.40;5.18;;;;;;;;;;5053309;28;20992;-70
2021/04/24 11:36:15;;;;;;;4.93;4.43;;;;;;;;;;5053518;28;20277;-70
2021/04/24 11:39:00;;;;;;;6.87;5.17;;;;;;;;;;5054066;28;20435;-70
2021/04/24 11:41:27;;;;;;;6.30;5.67;;;;;;;;;;5054002;28;20458;-69
2021/04/24 11:43:54;;;;;;;6.50;5.67;;;;;;;;;;5053131;28;20445;-69
2021/04/24 11:46:34;;;;;;;6.13;4.90;;;;;;;;;;5054797;28;20851;-70
2021/04/24 11:49:08;;;;;;;8.37;5.70;;;;;;;;;;5054333;28;20504;-70
2021/04/24 11:51:43;;;;;;;9.47;5.50;;;;;;;;;;5055105;28;20898;-70
2021/04/24 11:54:11;;;;;;;6.82;4.30;;;;;;;;;;5055071;28;20431;-70
2021/04/24 11:56:39;;;;;;;5.33;4.20;;;;;;;;;;5054205;28;20301;-70
2021/04/24 11:59:06;;;;;;;13.10;5.33;;;;;;;;;;5053410;28;20499;-69
2021/04/24 12:01:34;;;;;;;7.53;5.40;;;;;;;;;;5053481;28;20440;-70
2021/04/24 12:04:01;;;;;;;10.43;4.70;;;;;;;;;;5053436;28;20536;-69
2021/04/24 12:06:34;;;;;;;10.10;5.30;;;;;;;;;;5052853;28;20462;-70
2021/04/24 12:09:01;;;;;;;12.43;5.87;;;;;;;;;;5053640;28;20440;-70
2021/04/24 12:11:29;;;;;;;11.13;5.13;;;;;;;;;;5058066;28;20451;-70
2021/04/24 12:13:56;;;;;;;12.07;5.70;;;;;;;;;;5057073;28;20533;-69
2021/04/24 12:16:36;;;;;;;8.77;4.87;;;;;;;;;;5057217;28;20528;-70
2021/04/24 12:19:17;;;;;;;6.60;5.00;;;;;;;;;;5070681;28;20439;-70
2021/04/24 12:21:45;;;;;;;8.27;4.60;;;;;;;;;;5077043;28;20452;-71
2021/04/24 12:24:12;;;;;;;7.90;4.87;;;;;;;;;;5076761;28;20479;-70
2021/04/24 12:26:38;;;;;;;9.52;4.32;;;;;;;;;;5076630;28;20440;-69
2021/04/24 12:29:06;;;;;;;10.30;5.83;;;;;;;;;;5077363;28;20285;-70
2021/04/24 12:31:33;;;;;;;12.57;5.60;;;;;;;;;;5077114;28;20516;-70
2021/04/24 12:33:59;;;;;;;4.93;4.43;;;;;;;;;;5077432;28;20448;-70
2021/04/24 12:36:38;;;;;;;7.33;5.07;;;;;;;;;;5076520;28;20446;-70
2021/04/24 12:39:16;;;;;;;6.30;5.00;;;;;;;;;;5076521;28;20523;-70
2021/04/24 12:41:47;;;;;;;9.23;4.57;;;;;;;;;;5077027;28;20930;-71
2021/04/24 12:44:26;;;;;;;6.73;5.00;;;;;;;;;;5076317;28;20433;-70
2021/04/24 12:46:52;;;;;;;8.83;5.73;;;;;;;;;;5076225;28;20507;-70
2021/04/24 12:49:19;;;;;;;6.07;4.07;;;;;;;;;;5076775;28;20899;-70
2021/04/24 12:51:58;;;;;;;9.13;5.40;;;;;;;;;;5076746;28;20524;-70
2021/04/24 12:54:26;;;;;;;8.30;4.50;;;;;;;;;;5076682;28;20439;-70
2021/04/24 12:57:09;;;;;;;4.97;4.13;;;;;;;;;;5075434;28;20530;-70
2021/04/24 12:59:36;;;;;;;6.30;4.60;;;;;;;;;;5075966;28;20433;-70
2021/04/24 13:02:04;;;;;;;9.13;5.10;;;;;;;;;;5076129;28;20462;-70
2021/04/24 13:04:31;;;;;;;6.30;4.73;;;;;;;;;;5076456;28;20482;-69
2021/04/24 13:06:59;;;;;;;7.97;5.20;;;;;;;;;;5075792;28;20487;-69
2021/04/24 13:09:41;;;;;;;6.63;5.30;;;;;;;;;;5075872;28;21002;-69
2021/04/24 13:12:10;;;;;;;6.67;4.40;;;;;;;;;;5076316;28;20965;-70
2021/04/24 13:14:44;;;;;;;9.30;5.27;;;;;;;;;;5075693;28;20946;-71
2021/04/24 13:17:12;;;;;;;8.70;5.53;;;;;;;;;;5075852;28;20917;-69
2021/04/24 13:19:49;;;;;;;10.13;5.20;;;;;;;;;;5075939;28;20479;-70
2021/04/24 13:22:30;;;;;;;10.57;5.17;;;;;;;;;;5074601;28;20436;-70
2021/04/24 13:24:58;;;;;;;8.73;4.43;;;;;;;;;;5075559;28;20454;-70
2021/04/24 13:27:25;;;;;;;5.70;4.70;;;;;;;;;;5075852;28;20484;-71
2021/04/24 13:29:52;;;;;;;13.60;6.30;;;;;;;;;;5075968;28;20528;-70
2021/04/24 13:32:19;;;;;;;6.87;5.40;;;;;;;;;;5075443;28;20475;-70
2021/04/24 13:34:46;;;;;;;13.20;7.00;;;;;;;;;;5076256;28;20795;-70
2021/04/24 13:37:20;;;;;;;8.73;4.83;;;;;;;;;;5075357;28;20440;-70
2021/04/24 13:39:48;;;;;;;11.23;6.70;;;;;;;;;;5075708;28;20442;-70
2021/04/24 13:42:18;;;;;;;5.50;4.47;;;;;;;;;;5075142;28;20456;-71
2021/04/24 13:44:44;;;;;;;20.33;5.80;;;;;;;;;;5075891;28;20528;-70
2021/04/24 13:47:24;;;;;;;9.53;5.10;;;;;;;;;;5075092;28;20487;-70
2021/04/24 13:49:50;;;;;;;8.17;7.10;;;;;;;;;;5075100;28;20475;-71
2021/04/24 13:52:18;;;;;;;10.07;5.80;;;;;;;;;;5075458;28;20773;-70
2021/04/24 13:54:45;;;;;;;6.90;5.23;;;;;;;;;;5075015;28;20440;-70
2021/04/24 13:57:12;;;;;;;9.70;5.67;;;;;;;;;;5075539;28;20433;-70
2021/04/24 13:59:40;;;;;;;9.03;4.10;;;;;;;;;;5075692;28;20523;-69
2021/04/24 14:02:07;;;;;;;6.30;4.50;;;;;;;;;;5074991;28;20436;-70
2021/04/24 14:04:34;;;;;;;9.27;4.50;;;;;;;;;;5075604;28;20523;-70
2021/04/24 14:07:01;;;;;;;8.60;4.53;;;;;;;;;;5074793;28;20610;-70
2021/04/24 14:09:27;;;;;;;11.60;6.20;;;;;;;;;;5074969;28;20448;-70
2021/04/24 14:11:54;;;;;;;8.43;4.90;;;;;;;;;;5075052;28;20532;-70
2021/04/24 14:14:21;;;;;;;8.17;4.03;;;;;;;;;;5075980;28;20749;-69
2021/04/24 14:16:49;;;;;;;11.60;7.63;;;;;;;;;;5075297;28;20796;-70
2021/04/24 14:19:15;;;;;;;9.83;4.60;;;;;;;;;;5074648;28;20442;-69
2021/04/24 14:21:42;;;;;;;5.70;5.10;;;;;;;;;;5074383;28;20471;-69
2021/04/24 14:24:09;;;;;;;5.23;4.30;;;;;;;;;;5074977;28;20444;-70
2021/04/24 14:26:38;;;;;;;5.43;4.43;;;;;;;;;;5074333;28;20528;-70
2021/04/24 14:29:04;;;;;;;8.57;4.00;;;;;;;;;;5074410;28;20838;-70
2021/04/24 14:31:31;;;;;;;8.10;5.20;;;;;;;;;;5073497;28;20548;-70
2021/04/24 14:33:59;;;;;;;13.10;4.60;;;;;;;;;;5074391;28;20468;-70
2021/04/24 14:36:26;;;;;;;4.90;4.00;;;;;;;;;;5074431;28;20528;-70
2021/04/24 14:38:53;;;;;;;9.23;4.43;;;;;;;;;;5074244;28;20919;-69
2021/04/24 14:41:19;;;;;;;7.57;4.00;;;;;;;;;;5074110;28;20806;-69
2021/04/24 14:43:52;;;;;;;5.43;4.03;;;;;;;;;;5074196;28;20527;-69